Time;durP1;ratioP1;P1;durP2;ratioP2;P2;SDS_P1;SDS_P2;PMS_P1;PMS_P2;Temp;Humidity;BMP_temperature;BMP_pressure;BME280_temperature;BME280_humidity;BME280_pressure;Samples;Min_cycle;Max_cycle;Signal;HPM_P1;HPM_P2
2023/09/24 00:00:13;;;;;;;2.70;1.10;;;;;;;24.61;53.91;101115.09;5027668;28;20068;-61
2023/09/24 00:02:41;;;;;;;2.92;1.08;;;;;;;24.60;54.10;101116.09;5025113;28;20399;-60
2023/09/24 00:05:09;;;;;;;3.17;0.90;;;;;;;24.60;53.74;101110.69;5024586;28;20045;-60
2023/09/24 00:07:37;;;;;;;2.22;0.95;;;;;;;24.61;53.91;101114.25;5027680;28;20056;-60
2023/09/24 00:10:04;;;;;;;2.40;1.00;;;;;;;24.60;54.13;101112.56;5027762;28;20050;-60
2023/09/24 00:12:32;;;;;;;2.60;0.98;;;;;;;24.60;53.79;101110.69;5025066;28;20050;-60
2023/09/24 00:14:59;;;;;;;2.10;1.00;;;;;;;24.59;54.00;101111.72;5024368;28;20058;-60
2023/09/24 00:17:27;;;;;;;3.33;1.10;;;;;;;24.60;53.83;101110.69;5027724;28;20050;-60
2023/09/24 00:19:55;;;;;;;3.83;1.10;;;;;;;24.61;53.96;101125.06;5026194;28;20049;-59
2023/09/24 00:22:22;;;;;;;3.80;1.77;;;;;;;24.60;53.94;101136.91;5024178;28;20404;-59
2023/09/24 00:24:53;;;;;;;5.45;1.42;;;;;;;24.60;54.13;101136.91;5024628;28;20053;-59
2023/09/24 00:27:21;;;;;;;3.13;1.15;;;;;;;24.59;54.00;101137.91;5027658;28;20045;-59
2023/09/24 00:29:48;;;;;;;3.20;1.13;;;;;;;24.60;53.94;101139.63;5027445;28;20484;-59
2023/09/24 00:32:16;;;;;;;2.67;1.05;;;;;;;24.59;54.06;101146.91;5024597;28;20052;-59
2023/09/24 00:34:43;;;;;;;2.95;1.27;;;;;;;24.59;54.08;101144.19;5023083;28;20416;-59
2023/09/24 00:37:11;;;;;;;2.47;1.13;;;;;;;24.59;53.97;101144.19;5025477;28;20061;-59
2023/09/24 00:39:39;;;;;;;3.22;1.05;;;;;;;24.59;53.90;101140.63;5027461;28;20049;-59
2023/09/24 00:42:09;;;;;;;2.20;0.80;;;;;;;24.58;53.95;101147.88;5024050;28;20482;-59
2023/09/24 00:44:37;;;;;;;1.80;0.82;;;;;;;24.59;54.04;101162.25;5022845;28;20057;-59
2023/09/24 00:47:05;;;;;;;3.63;0.90;;;;;;;24.58;54.02;101156.00;5026051;28;20057;-59
2023/09/24 00:49:33;;;;;;;1.58;0.80;;;;;;;24.59;53.84;101152.31;5026326;28;20066;-59
2023/09/24 00:52:00;;;;;;;4.78;0.85;;;;;;;24.58;53.80;101149.75;5022223;28;20050;-60
2023/09/24 00:54:30;;;;;;;2.35;1.05;;;;;;;24.57;53.88;101140.78;5025009;28;20061;-59
2023/09/24 00:56:58;;;;;;;2.47;1.15;;;;;;;24.57;53.90;101138.06;5041542;28;20053;-59
2023/09/24 00:59:28;;;;;;;2.05;0.98;;;;;;;24.58;53.97;101141.63;5026943;28;20049;-59
2023/09/24 01:01:57;;;;;;;1.92;0.80;;;;;;;24.57;53.77;101142.66;5018181;28;20400;-59
2023/09/24 01:04:24;;;;;;;3.30;1.10;;;;;;;24.57;53.87;101146.19;5024400;28;20057;-59
2023/09/24 01:06:52;;;;;;;1.83;0.70;;;;;;;24.57;54.02;101140.78;5026508;28;20053;-59
2023/09/24 01:09:20;;;;;;;2.05;0.75;;;;;;;24.56;53.60;101143.66;5026544;28;20407;-59
2023/09/24 01:11:50;;;;;;;2.83;1.10;;;;;;;24.56;53.77;101149.91;5023336;28;20042;-59
2023/09/24 01:14:17;;;;;;;2.60;1.00;;;;;;;24.56;53.56;101141.78;5026183;28;20049;-60
2023/09/24 01:16:45;;;;;;;3.25;1.05;;;;;;;24.57;53.50;101142.66;5026772;28;20479;-59
2023/09/24 01:19:12;;;;;;;2.30;0.93;;;;;;;24.57;54.03;101153.47;5025899;28;20052;-59
2023/09/24 01:21:41;;;;;;;2.15;0.90;;;;;;;24.56;53.71;101149.06;5022795;28;20530;-59
2023/09/24 01:24:08;;;;;;;3.13;1.10;;;;;;;24.57;53.77;101158.88;5025050;28;20050;-59
2023/09/24 01:26:36;;;;;;;2.78;0.80;;;;;;;24.56;53.82;101170.72;5025924;28;20060;-60
2023/09/24 01:29:07;;;;;;;2.28;0.82;;;;;;;24.55;53.68;101171.72;5023948;28;20053;-60
2023/09/24 01:31:38;;;;;;;2.47;1.15;;;;;;;24.55;53.63;101172.59;5023268;28;20042;-60
2023/09/24 01:34:05;;;;;;;3.70;1.30;;;;;;;24.55;53.80;101183.41;5012186;28;20046;-60
2023/09/24 01:36:33;;;;;;;2.20;0.93;;;;;;;24.56;53.94;101192.38;5030406;28;20054;-60
2023/09/24 01:39:01;;;;;;;2.88;0.90;;;;;;;24.55;53.71;101188.84;5028348;28;20049;-60
2023/09/24 01:41:31;;;;;;;2.47;0.70;;;;;;;24.56;53.82;101189.69;5027106;28;20053;-60
2023/09/24 01:43:59;;;;;;;3.78;0.95;;;;;;;24.55;53.79;101182.53;5030962;28;20041;-60
2023/09/24 01:46:28;;;;;;;3.42;1.13;;;;;;;24.55;53.51;101180.72;5028853;28;20499;-60
2023/09/24 01:48:56;;;;;;;2.63;1.08;;;;;;;24.54;53.42;101176.28;5027486;28;20045;-60
2023/09/24 01:51:23;;;;;;;1.98;0.80;;;;;;;24.54;53.53;101168.16;5026250;28;20050;-60
2023/09/24 01:53:51;;;;;;;2.28;0.98;;;;;;;24.55;53.67;101172.59;5030343;28;20057;-60
2023/09/24 01:56:19;;;;;;;1.80;0.80;;;;;;;24.54;53.61;101170.03;5028645;28;20049;-59
2023/09/24 01:58:47;;;;;;;2.97;1.02;;;;;;;24.54;53.48;101178.16;5016158;28;20056;-60
2023/09/24 02:01:14;;;;;;;2.38;1.20;;;;;;;24.53;53.61;101185.41;5027593;28;20061;-59
2023/09/24 02:03:42;;;;;;;2.42;1.00;;;;;;;24.54;53.62;101197.94;5030378;28;20041;-59
2023/09/24 02:06:14;;;;;;;3.88;0.90;;;;;;;24.53;53.67;101185.41;5028606;28;20050;-59
2023/09/24 02:08:41;;;;;;;3.38;1.17;;;;;;;24.54;53.71;101183.56;5026417;28;20061;-59
2023/09/24 02:11:10;;;;;;;2.65;0.98;;;;;;;24.53;53.68;101196.25;5027279;28;20064;-59
2023/09/24 02:13:38;;;;;;;2.50;0.77;;;;;;;24.53;53.33;101190.81;5030345;28;20037;-60
2023/09/24 02:16:06;;;;;;;1.92;0.85;;;;;;;24.53;53.64;101200.81;5017784;28;20049;-59
2023/09/24 02:18:34;;;;;;;4.90;0.85;;;;;;;24.52;53.49;101202.66;5026478;28;20050;-60
2023/09/24 02:21:01;;;;;;;2.33;0.88;;;;;;;24.52;53.47;101199.13;5026615;28;20097;-59
2023/09/24 02:23:29;;;;;;;2.13;0.90;;;;;;;24.53;53.46;101217.91;5029860;28;20051;-60
2023/09/24 02:25:56;;;;;;;2.13;0.93;;;;;;;24.52;53.35;101213.50;5029580;28;20045;-59
2023/09/24 02:28:24;;;;;;;2.85;1.20;;;;;;;24.52;53.80;101213.50;5041349;28;20057;-60
2023/09/24 02:30:53;;;;;;;2.10;0.73;;;;;;;24.53;53.57;101222.47;5027716;28;20057;-59
2023/09/24 02:33:22;;;;;;;3.22;1.00;;;;;;;24.52;53.36;101223.47;5029051;28;20049;-59
2023/09/24 02:35:49;;;;;;;2.63;1.15;;;;;;;24.52;53.25;101221.63;5028053;28;20056;-59
2023/09/24 02:38:18;;;;;;;1.77;0.82;;;;;;;24.51;53.48;101225.34;5020356;28;20599;-60
2023/09/24 02:40:46;;;;;;;2.10;1.08;;;;;;;24.52;53.32;101231.59;5026481;28;20073;-59
2023/09/24 02:43:13;;;;;;;2.50;0.95;;;;;;;24.52;53.42;101234.31;5029508;28;20045;-59
2023/09/24 02:45:40;;;;;;;2.35;1.00;;;;;;;24.51;53.44;101225.34;5027814;28;20049;-59
2023/09/24 02:48:09;;;;;;;2.90;1.10;;;;;;;24.51;53.13;101219.94;5035522;28;20523;-59
2023/09/24 02:50:36;;;;;;;2.53;0.90;;;;;;;24.52;53.27;101218.06;5028386;28;20049;-60
2023/09/24 02:53:05;;;;;;;2.88;0.82;;;;;;;24.50;53.46;101215.50;5029416;28;20046;-60
2023/09/24 02:55:33;;;;;;;2.03;1.10;;;;;;;24.50;53.36;101217.34;5028302;28;20400;-60
2023/09/24 02:58:05;;;;;;;2.35;0.80;;;;;;;24.50;53.14;101217.34;5025734;28;20058;-60
2023/09/24 03:00:34;;;;;;;2.55;1.10;;;;;;;24.50;53.26;101220.91;5027234;28;20388;-60
2023/09/24 03:03:04;;;;;;;3.15;1.27;;;;;;;24.50;53.23;101222.78;5028995;28;20059;-61
2023/09/24 03:05:33;;;;;;;2.03;1.08;;;;;;;24.50;53.15;101234.44;5025404;28;20064;-60
2023/09/24 03:08:02;;;;;;;2.97;1.20;;;;;;;24.49;52.89;101235.47;5025012;28;20053;-60
2023/09/24 03:10:32;;;;;;;2.58;0.82;;;;;;;24.49;53.20;101238.16;5027964;28;20057;-60
2023/09/24 03:13:00;;;;;;;2.78;1.00;;;;;;;24.49;53.17;101245.44;5016897;28;20477;-60
2023/09/24 03:15:27;;;;;;;1.80;0.70;;;;;;;24.49;53.07;101256.25;5025200;28;20053;-60
2023/09/24 03:17:55;;;;;;;1.52;0.88;;;;;;;24.49;53.00;101267.09;5024379;28;20388;-60
2023/09/24 03:20:24;;;;;;;1.83;1.00;;;;;;;24.50;52.93;101266.06;5028615;28;20052;-60
2023/09/24 03:22:55;;;;;;;2.40;0.98;;;;;;;24.49;52.68;101258.97;5026575;28;20065;-60
2023/09/24 03:25:24;;;;;;;2.55;0.88;;;;;;;24.49;52.82;101261.69;5025371;28;20060;-60
2023/09/24 03:27:54;;;;;;;2.03;0.77;;;;;;;24.48;52.58;101255.41;5025350;28;20057;-60
2023/09/24 03:30:21;;;;;;;2.10;1.02;;;;;;;24.48;52.72;101260.81;5027059;28;20061;-59
2023/09/24 03:32:53;;;;;;;2.17;0.70;;;;;;;24.47;52.82;101259.13;5043161;28;20060;-59
2023/09/24 03:35:23;;;;;;;1.95;0.75;;;;;;;24.48;52.71;101278.94;5019525;28;20050;-59
2023/09/24 03:37:53;;;;;;;1.52;0.68;;;;;;;24.49;52.52;101286.03;5025981;28;20523;-59
2023/09/24 03:40:26;;;;;;;2.72;1.00;;;;;;;24.47;52.66;101288.91;5028471;28;20060;-59
2023/09/24 03:42:55;;;;;;;3.47;1.17;;;;;;;24.47;52.73;101288.91;5024551;28;20057;-59
2023/09/24 03:45:24;;;;;;;2.63;1.00;;;;;;;24.46;52.70;101292.59;5023415;28;20042;-59
2023/09/24 03:47:53;;;;;;;1.70;0.70;;;;;;;24.46;52.91;101287.19;5026769;28;20506;-59
2023/09/24 03:50:21;;;;;;;2.60;1.00;;;;;;;24.47;52.67;101296.16;5026866;28;20049;-60
2023/09/24 03:52:50;;;;;;;2.33;1.00;;;;;;;24.46;52.81;101298.00;5023793;28;20412;-60
2023/09/24 03:55:21;;;;;;;2.13;0.98;;;;;;;24.47;52.57;101309.69;5025083;28;20072;-60
2023/09/24 03:57:49;;;;;;;2.17;0.82;;;;;;;24.46;52.82;101298.00;5042165;28;20045;-60
2023/09/24 04:00:21;;;;;;;2.25;0.70;;;;;;;24.45;52.76;101301.72;5026345;28;20053;-59
2023/09/24 04:02:50;;;;;;;1.95;0.68;;;;;;;24.46;52.95;101302.56;5024282;28;20056;-59
2023/09/24 04:05:24;;;;;;;2.47;0.98;;;;;;;24.45;52.75;101307.16;5026353;28;20042;-59
2023/09/24 04:07:54;;;;;;;2.60;0.98;;;;;;;24.45;52.87;101301.72;5027953;28;20048;-59
2023/09/24 04:10:27;;;;;;;3.58;1.17;;;;;;;24.45;52.81;101307.16;5024877;28;20057;-59
2023/09/24 04:12:57;;;;;;;2.30;0.98;;;;;;;24.45;52.99;101295.47;5024165;28;20049;-60
2023/09/24 04:15:29;;;;;;;2.88;0.95;;;;;;;24.45;52.94;101307.16;5027957;28;20376;-60
2023/09/24 04:18:02;;;;;;;1.90;0.70;;;;;;;24.45;52.63;101307.16;5028130;28;20045;-59
2023/09/24 04:20:32;;;;;;;2.83;0.90;;;;;;;24.45;52.92;101307.16;5024367;28;20050;-59
2023/09/24 04:23:00;;;;;;;2.95;1.00;;;;;;;24.46;52.98;101310.69;5026259;28;20396;-60
2023/09/24 04:25:28;;;;;;;2.03;0.98;;;;;;;24.45;52.62;101306.28;5027890;28;20037;-60
2023/09/24 04:27:55;;;;;;;2.78;0.90;;;;;;;24.44;52.93;101310.00;5015784;28;20057;-60
2023/09/24 04:30:24;;;;;;;1.90;0.90;;;;;;;24.44;53.05;101321.69;5024099;28;20069;-59
2023/09/24 04:32:54;;;;;;;1.50;0.60;;;;;;;24.44;52.86;101316.28;5026348;28;20053;-60
2023/09/24 04:35:22;;;;;;;2.30;0.75;;;;;;;24.45;52.90;101322.53;5027208;28;20403;-59
2023/09/24 04:37:51;;;;;;;1.85;0.93;;;;;;;24.45;52.87;101326.09;5026093;28;20095;-59
2023/09/24 04:40:19;;;;;;;1.80;0.70;;;;;;;24.45;52.79;101320.66;5023913;28;20045;-60
2023/09/24 04:42:51;;;;;;;2.33;0.88;;;;;;;24.45;53.08;101330.66;5026302;28;20431;-60
2023/09/24 04:45:18;;;;;;;1.98;0.85;;;;;;;24.45;52.63;101331.50;5027358;28;20037;-60
2023/09/24 04:47:48;;;;;;;2.78;0.70;;;;;;;24.44;52.91;101326.25;5025168;28;20403;-60
2023/09/24 04:50:17;;;;;;;1.92;0.73;;;;;;;24.44;52.71;101332.50;5023357;28;20049;-60
2023/09/24 04:52:47;;;;;;;4.10;0.85;;;;;;;24.43;52.64;101338.94;5024153;28;20057;-60
2023/09/24 04:55:16;;;;;;;1.95;0.90;;;;;;;24.44;52.77;101342.50;5027004;28;20061;-60
2023/09/24 04:57:45;;;;;;;1.80;0.75;;;;;;;24.44;52.58;101343.34;5024155;28;20045;-60
2023/09/24 05:00:15;;;;;;;1.63;0.70;;;;;;;24.42;52.76;101356.16;5024711;28;20052;-59
2023/09/24 05:02:43;;;;;;;2.13;0.93;;;;;;;24.43;52.52;101349.75;5027310;28;20049;-59
2023/09/24 05:05:11;;;;;;;1.98;0.95;;;;;;;24.42;52.63;101353.44;5027178;28;20044;-59
2023/09/24 05:07:38;;;;;;;3.13;1.30;;;;;;;24.43;52.48;101366.00;5025250;28;20051;-59
2023/09/24 05:10:07;;;;;;;2.42;1.10;;;;;;;24.41;52.69;101363.44;5028661;28;20049;-59
2023/09/24 05:12:35;;;;;;;2.65;0.90;;;;;;;24.41;52.56;101365.28;5031365;28;20045;-59
2023/09/24 05:15:03;;;;;;;1.52;0.70;;;;;;;24.42;52.33;101372.41;5030608;28;20053;-59
2023/09/24 05:17:33;;;;;;;1.48;0.63;;;;;;;24.41;52.46;101379.66;5042502;28;20050;-59
2023/09/24 05:20:02;;;;;;;2.05;0.95;;;;;;;24.40;52.66;101375.25;5028977;28;20411;-59
2023/09/24 05:22:30;;;;;;;1.92;0.98;;;;;;;24.41;52.38;101381.53;5031035;28;20403;-59
2023/09/24 05:24:57;;;;;;;2.45;0.88;;;;;;;24.40;52.46;101374.41;5030207;28;20049;-59
2023/09/24 05:27:29;;;;;;;2.30;0.60;;;;;;;24.40;52.31;101372.56;5033075;28;20400;-59
2023/09/24 05:29:56;;;;;;;3.30;1.05;;;;;;;24.40;52.58;101371.72;5029922;28;20046;-60
2023/09/24 05:32:24;;;;;;;1.40;0.60;;;;;;;24.40;52.25;101369.00;5030720;28;20041;-60
2023/09/24 05:34:54;;;;;;;2.17;1.00;;;;;;;24.40;52.39;101375.25;5029578;28;20041;-60
2023/09/24 05:37:22;;;;;;;2.72;1.05;;;;;;;24.40;52.37;101377.97;5026972;28;20054;-60
2023/09/24 05:39:49;;;;;;;1.95;0.88;;;;;;;24.39;52.56;101375.44;5030158;28;20045;-60
2023/09/24 05:42:17;;;;;;;2.38;0.82;;;;;;;24.39;52.42;101378.97;5027286;28;20419;-59
2023/09/24 05:44:45;;;;;;;1.90;0.82;;;;;;;24.39;52.24;101372.72;5025391;28;20056;-60
2023/09/24 05:47:13;;;;;;;2.15;0.85;;;;;;;24.38;52.22;101373.69;5026990;28;20057;-60
2023/09/24 05:49:40;;;;;;;2.63;0.90;;;;;;;24.39;52.13;101372.72;5028836;28;20057;-59
2023/09/24 05:52:07;;;;;;;3.47;0.95;;;;;;;24.38;52.28;101371.00;5030310;28;20049;-60
2023/09/24 05:54:35;;;;;;;1.90;0.90;;;;;;;24.38;52.51;101371.00;5027514;28;20416;-59
2023/09/24 05:57:03;;;;;;;1.85;1.00;;;;;;;24.38;52.52;101373.69;5026349;28;20053;-59
2023/09/24 05:59:31;;;;;;;1.73;0.73;;;;;;;24.38;52.23;101381.81;5029726;28;20049;-60
2023/09/24 06:01:59;;;;;;;2.45;0.80;;;;;;;24.38;52.47;101382.66;5030460;28;20400;-59
2023/09/24 06:04:26;;;;;;;2.35;0.80;;;;;;;24.38;52.39;101387.22;5028377;28;20053;-59
2023/09/24 06:06:54;;;;;;;2.10;0.80;;;;;;;24.37;52.14;101388.22;5026121;28;20050;-59
2023/09/24 06:09:21;;;;;;;2.83;0.75;;;;;;;24.38;52.24;101392.66;5029396;28;20056;-60
2023/09/24 06:11:49;;;;;;;2.97;0.70;;;;;;;24.37;51.93;101391.75;5028952;28;20049;-60
2023/09/24 06:14:16;;;;;;;3.03;0.95;;;;;;;24.37;52.11;101393.63;5028385;28;20045;-60
2023/09/24 06:16:44;;;;;;;1.88;0.93;;;;;;;24.36;52.17;101395.47;5026200;28;20046;-60
2023/09/24 06:19:13;;;;;;;4.07;1.13;;;;;;;24.37;52.53;101402.59;5028867;28;20056;-60
2023/09/24 06:21:40;;;;;;;2.47;1.17;;;;;;;24.38;52.45;101417.84;5029674;28;20045;-60
2023/09/24 06:24:08;;;;;;;1.90;0.88;;;;;;;24.38;52.38;101417.84;5028497;28;20052;-61
2023/09/24 06:26:38;;;;;;;2.28;0.90;;;;;;;24.37;52.46;101429.66;5026797;28;20046;-60
2023/09/24 06:29:06;;;;;;;2.88;1.20;;;;;;;24.38;52.32;101422.41;5011856;28;20053;-60
2023/09/24 06:31:38;;;;;;;3.55;1.10;;;;;;;24.36;52.03;101422.53;5029535;28;20050;-59
2023/09/24 06:34:07;;;;;;;2.58;1.00;;;;;;;24.37;52.21;101423.38;5026421;28;20046;-60
2023/09/24 06:36:35;;;;;;;5.07;1.20;;;;;;;24.36;52.03;101427.97;5026911;28;20045;-59
2023/09/24 06:39:07;;;;;;;1.52;0.70;;;;;;;24.36;51.84;101432.53;5029206;28;20076;-59
2023/09/24 06:41:35;;;;;;;;;;;;;;;24.34;51.92;101437.22;5029888;28;20427;-60
2023/09/24 06:44:03;;;;;;;2.38;1.00;;;;;;;24.35;52.06;101442.50;5025981;28;19921;-59
2023/09/24 06:46:30;;;;;;;2.40;1.13;;;;;;;24.35;52.09;101449.78;5027409;28;20499;-60
2023/09/24 06:48:57;;;;;;;2.08;1.00;;;;;;;24.35;51.68;101449.78;5029279;28;20053;-61
2023/09/24 06:51:25;;;;;;;2.35;0.70;;;;;;;24.33;51.87;101452.59;5028920;28;20053;-62
2023/09/24 06:53:54;;;;;;;2.83;1.10;;;;;;;24.33;51.80;101454.47;5025625;28;20046;-62
2023/09/24 06:56:21;;;;;;;2.05;0.93;;;;;;;24.31;51.41;101457.31;5026975;28;20059;-62
2023/09/24 06:58:49;;;;;;;2.35;1.20;;;;;;;24.31;51.76;101470.84;5025254;28;20046;-62
2023/09/24 07:01:16;;;;;;;2.70;1.15;;;;;;;24.32;51.67;101471.72;5028614;28;20503;-63
2023/09/24 07:03:44;;;;;;;2.58;0.80;;;;;;;24.33;51.33;101476.13;5025112;28;20053;-62
2023/09/24 07:06:12;;;;;;;2.60;0.90;;;;;;;24.31;51.47;101478.97;5027233;28;20397;-63
2023/09/24 07:08:39;;;;;;;2.10;0.90;;;;;;;24.31;51.57;101475.41;5027457;28;20053;-61
2023/09/24 07:11:27;;;;;;;1.35;0.65;;;;;;;24.31;51.38;101483.53;5028674;28;20499;-62
2023/09/24 07:13:55;;;;;;;1.58;0.88;;;;;;;24.31;51.27;101483.53;5022941;28;20045;-62
2023/09/24 07:16:24;;;;;;;1.98;0.80;;;;;;;24.31;51.52;101487.09;5028714;28;20057;-62
2023/09/24 07:18:53;;;;;;;2.25;0.90;;;;;;;24.32;51.52;101488.78;5028896;28;20411;-62
2023/09/24 07:21:28;;;;;;;1.65;1.00;;;;;;;24.32;51.58;101487.94;5025405;28;20075;-62
2023/09/24 07:24:03;;;;;;;1.63;0.73;;;;;;;24.31;51.42;101494.38;5028088;28;20049;-63
2023/09/24 07:26:31;;;;;;;1.88;0.80;;;;;;;24.31;51.44;101480.84;5027262;28;20049;-62
2023/09/24 07:29:00;;;;;;;1.77;0.73;;;;;;;24.31;51.03;101483.53;5027475;28;20046;-61
2023/09/24 07:31:29;;;;;;;1.48;0.75;;;;;;;24.31;50.84;101488.94;5024341;28;20050;-62
2023/09/24 07:34:00;;;;;;;1.90;0.80;;;;;;;24.31;51.11;101483.53;5028724;28;20423;-63
2023/09/24 07:36:30;;;;;;;1.77;0.98;;;;;;;24.30;51.11;101484.50;5028639;28;20050;-63
2023/09/24 07:39:08;;;;;;;2.20;0.90;;;;;;;24.30;50.99;101485.38;5024485;28;20496;-59
2023/09/24 07:41:36;;;;;;;2.10;0.90;;;;;;;24.30;50.65;101492.63;5026280;28;20049;-60
2023/09/24 07:44:04;;;;;;;2.38;0.98;;;;;;;24.29;50.96;101490.94;5028112;28;20052;-61
2023/09/24 07:46:31;;;;;;;3.72;1.05;;;;;;;24.29;50.73;101493.66;5027968;28;20129;-61
2023/09/24 07:49:03;;;;;;;2.67;1.15;;;;;;;24.28;50.93;101491.94;5025072;28;20400;-61
2023/09/24 07:51:31;;;;;;;2.83;1.17;;;;;;;24.28;50.32;101490.09;5026860;28;20041;-60
2023/09/24 07:53:58;;;;;;;4.25;1.17;;;;;;;24.30;50.16;101508.88;5028019;28;20510;-61
2023/09/24 07:56:26;;;;;;;2.80;1.17;;;;;;;24.28;50.20;101505.47;5027396;28;20408;-62
2023/09/24 07:58:55;;;;;;;3.58;1.20;;;;;;;24.24;49.27;101499.50;5024992;28;20049;-64
2023/09/24 08:01:22;;;;;;;2.40;1.20;;;;;;;24.14;48.72;101499.53;5024241;28;20058;-65
2023/09/24 08:03:51;;;;;;;2.28;1.20;;;;;;;23.98;47.84;101504.69;5022264;28;20045;-60
2023/09/24 08:06:20;;;;;;;3.47;1.27;;;;;;;23.89;47.32;101506.44;5015465;28;20050;-60
2023/09/24 08:08:47;;;;;;;3.42;0.95;;;;;;;23.86;47.28;101513.97;5024213;28;20053;-59
2023/09/24 08:11:26;;;;;;;2.88;1.40;;;;;;;23.85;47.01;101514.97;5017160;28;20050;-60
2023/09/24 08:13:54;;;;;;;3.47;1.35;;;;;;;23.86;46.69;101508.56;5026661;28;20072;-59
2023/09/24 08:16:21;;;;;;;3.60;1.30;;;;;;;23.88;46.82;101515.53;5000793;28;20041;-59
2023/09/24 08:18:49;;;;;;;2.95;1.50;;;;;;;23.89;46.79;101511.84;5019343;28;20049;-61
2023/09/24 08:21:21;;;;;;;3.55;1.60;;;;;;;23.90;46.79;101513.56;5024471;28;20045;-62
2023/09/24 08:23:48;;;;;;;3.38;1.38;;;;;;;23.89;46.85;101517.25;5025259;28;20069;-61
2023/09/24 08:26:17;;;;;;;2.75;1.27;;;;;;;23.91;46.78;101517.13;5032933;28;20042;-61
2023/09/24 08:28:44;;;;;;;4.80;1.40;;;;;;;23.92;46.98;101516.13;5032924;28;20053;-61
2023/09/24 08:31:12;;;;;;;3.40;1.50;;;;;;;23.92;46.67;101511.56;5032859;28;20488;-60
2023/09/24 08:33:40;;;;;;;2.65;1.35;;;;;;;23.88;46.80;101509.28;5033288;28;20057;-61
2023/09/24 08:36:10;;;;;;;2.70;1.40;;;;;;;23.83;46.93;101507.03;5018897;28;20045;-60
2023/09/24 08:38:38;;;;;;;3.95;1.48;;;;;;;23.81;47.63;101506.31;5032605;28;20064;-59
2023/09/24 08:41:11;;;;;;;3.25;1.60;;;;;;;23.79;47.38;101504.75;5032938;28;20045;-59
2023/09/24 08:43:41;;;;;;;3.72;1.98;;;;;;;23.74;47.35;101505.19;5032272;28;20060;-59
2023/09/24 08:46:10;;;;;;;2.92;1.60;;;;;;;23.72;47.66;101501.78;5032171;28;20050;-59
2023/09/24 08:48:42;;;;;;;3.40;1.60;;;;;;;23.70;48.21;101509.19;5032828;28;20049;-59
2023/09/24 08:51:10;;;;;;;3.95;1.65;;;;;;;23.69;47.93;101502.06;5032815;28;20411;-59
2023/09/24 08:53:41;;;;;;;4.22;1.70;;;;;;;23.68;48.24;101508.47;5032680;28;20056;-59
2023/09/24 08:56:09;;;;;;;3.13;1.77;;;;;;;23.69;48.23;101511.00;5032377;28;20052;-59
2023/09/24 08:58:39;;;;;;;4.32;1.95;;;;;;;23.71;48.25;101510.03;5033067;28;20053;-59
2023/09/24 09:01:10;;;;;;;3.63;1.83;;;;;;;23.74;48.56;101515.13;5030781;28;20049;-59
2023/09/24 09:03:40;;;;;;;3.08;1.52;;;;;;;23.74;48.28;101515.13;5032086;28;20064;-59
2023/09/24 09:06:08;;;;;;;3.33;1.60;;;;;;;23.74;48.34;101512.44;5032330;28;20060;-59
2023/09/24 09:08:50;;;;;;;4.07;2.08;;;;;;;23.73;48.78;101519.69;5032830;28;20480;-61
2023/09/24 09:11:19;;;;;;;3.17;1.65;;;;;;;23.69;48.71;101516.41;5028921;28;20057;-61
2023/09/24 09:13:48;;;;;;;4.10;1.73;;;;;;;23.67;48.41;101518.44;5031602;28;20049;-61
2023/09/24 09:16:16;;;;;;;2.72;1.65;;;;;;;23.66;48.72;101513.19;5007121;28;20369;-61
2023/09/24 09:18:59;;;;;;;3.83;2.00;;;;;;;23.64;48.46;101510.56;5012984;28;20049;-61
2023/09/24 09:21:26;;;;;;;3.67;1.50;;;;;;;23.62;48.42;101517.97;5031194;28;20041;-61
2023/09/24 09:23:55;;;;;;;3.22;1.45;;;;;;;23.63;48.56;101508.00;5027507;28;20049;-61
2023/09/24 09:26:33;;;;;;;3.95;1.58;;;;;;;23.62;48.43;101509.03;5029253;28;20057;-61
2023/09/24 09:29:04;;;;;;;6.72;1.92;;;;;;;23.64;48.66;101504.31;5029361;28;20053;-61
2023/09/24 09:31:47;;;;;;;4.78;1.85;;;;;;;23.65;48.62;101506.88;5025531;28;20045;-61
2023/09/24 09:34:15;;;;;;;3.75;1.65;;;;;;;23.69;48.62;101504.75;5028609;28;20054;-61
2023/09/24 09:36:42;;;;;;;4.07;1.77;;;;;;;23.73;49.83;101495.34;5027576;28;20045;-62
2023/09/24 09:39:10;;;;;;;4.28;2.00;;;;;;;23.77;50.33;101502.19;5026420;28;20050;-60
2023/09/24 09:41:41;;;;;;;4.68;2.17;;;;;;;23.82;52.65;101504.44;5025662;28;20053;-59
2023/09/24 09:44:10;;;;;;;4.35;2.20;;;;;;;23.81;51.82;101502.75;5026860;28;20049;-59
2023/09/24 09:46:39;;;;;;;3.95;1.65;;;;;;;23.81;50.32;101495.47;5025640;28;20503;-60
2023/09/24 09:49:09;;;;;;;5.00;1.88;;;;;;;23.82;49.97;101501.75;5023159;28;20061;-59
2023/09/24 09:51:46;;;;;;;4.63;1.80;;;;;;;23.78;49.68;101497.63;5025663;28;20406;-59
2023/09/24 09:54:15;;;;;;;3.65;1.42;;;;;;;23.74;48.68;101496.19;5028027;28;20041;-59
2023/09/24 09:56:43;;;;;;;3.08;1.50;;;;;;;23.71;48.49;101496.53;5028655;28;20042;-59
2023/09/24 09:59:10;;;;;;;2.75;1.80;;;;;;;23.69;48.66;101496.66;5031278;28;20052;-60
2023/09/24 10:01:38;;;;;;;3.95;2.20;;;;;;;23.65;48.35;101482.56;5028159;28;20387;-60
2023/09/24 10:04:07;;;;;;;2.67;1.48;;;;;;;23.64;48.13;101486.22;5030500;28;20054;-60
2023/09/24 10:06:38;;;;;;;3.13;1.52;;;;;;;23.65;48.34;101493.38;5026935;28;20495;-65
2023/09/24 10:09:26;;;;;;;2.60;1.27;;;;;;;23.64;48.07;101488.94;5029947;28;20050;-59
2023/09/24 10:11:56;;;;;;;2.40;1.25;;;;;;;23.60;47.69;101490.22;5020105;28;20064;-66
2023/09/24 10:14:48;;;;;;;3.17;1.58;;;;;;;23.55;47.35;101487.09;5026310;28;20061;-65
2023/09/24 10:17:15;;;;;;;2.30;1.20;;;;;;;23.52;47.21;101481.97;5015551;28;20049;-66
2023/09/24 10:19:59;;;;;;;2.53;1.40;;;;;;;23.50;47.54;101484.00;5013776;28;20045;-61
2023/09/24 10:22:31;;;;;;;2.88;1.10;;;;;;;23.48;47.65;101477.88;5030008;28;20048;-61
2023/09/24 10:25:00;;;;;;;5.43;1.95;;;;;;;23.49;47.73;101487.66;5031088;28;20049;-61
2023/09/24 10:27:32;;;;;;;2.10;1.13;;;;;;;23.48;48.01;101485.97;5034777;28;20037;-61
2023/09/24 10:30:01;;;;;;;2.20;1.10;;;;;;;23.50;48.46;101485.81;5035349;28;20380;-65
2023/09/24 10:32:41;;;;;;;3.05;1.60;;;;;;;23.50;48.21;101485.81;5033435;28;20062;-66
2023/09/24 10:35:09;;;;;;;3.00;1.42;;;;;;;23.50;48.38;101492.09;5034820;28;20046;-65
2023/09/24 10:37:57;;;;;;;3.10;1.52;;;;;;;23.52;48.31;101497.34;5034858;28;20062;-66
2023/09/24 10:40:27;;;;;;;3.33;1.42;;;;;;;23.54;48.65;101485.41;5034693;28;20065;-65
2023/09/24 10:43:12;;;;;;;2.60;1.13;;;;;;;23.52;48.00;101484.69;5034503;28;20411;-65
2023/09/24 10:45:39;;;;;;;2.17;1.10;;;;;;;23.51;47.52;101491.09;5034369;28;20052;-65
2023/09/24 10:48:07;;;;;;;2.10;1.10;;;;;;;23.50;46.94;101492.09;5034412;28;20051;-65
2023/09/24 10:50:38;;;;;;;2.45;1.20;;;;;;;23.49;46.64;101493.06;5034618;28;20373;-65
2023/09/24 10:53:05;;;;;;;1.88;0.88;;;;;;;23.50;46.58;101484.00;5034557;28;20042;-66
2023/09/24 10:55:34;;;;;;;2.83;0.90;;;;;;;23.54;48.83;101492.66;5034555;28;20045;-65
2023/09/24 10:58:15;;;;;;;3.35;1.02;;;;;;;23.55;49.43;101484.41;5034389;28;20045;-65
2023/09/24 11:00:45;;;;;;;3.42;0.80;;;;;;;23.57;47.91;101482.41;5036506;28;20503;-65
2023/09/24 11:03:14;;;;;;;2.42;1.08;;;;;;;23.56;46.59;101491.50;5027983;28;20487;-66
2023/09/24 11:05:41;;;;;;;2.30;0.98;;;;;;;23.54;46.41;101493.53;5034166;28;20049;-66
2023/09/24 11:08:10;;;;;;;2.03;1.00;;;;;;;23.53;46.18;101497.19;5034229;28;20033;-65
2023/09/24 11:10:37;;;;;;;1.90;0.88;;;;;;;23.52;46.04;101492.78;5033852;28;20060;-60
2023/09/24 11:13:06;;;;;;;1.75;0.80;;;;;;;23.53;45.30;101490.94;5032862;28;20064;-60
2023/09/24 11:15:36;;;;;;;1.67;0.80;;;;;;;23.53;45.82;101493.63;5034417;28;20045;-60
2023/09/24 11:18:05;;;;;;;1.70;0.80;;;;;;;23.51;45.19;101493.78;5021319;28;20758;-60
2023/09/24 11:20:34;;;;;;;1.80;0.70;;;;;;;23.51;45.31;101501.91;5012402;28;20053;-65
2023/09/24 11:23:06;;;;;;;1.98;0.98;;;;;;;23.51;44.80;101491.09;5034213;28;20049;-66
2023/09/24 11:25:33;;;;;;;2.00;0.95;;;;;;;23.53;45.44;101491.78;5033452;28;20042;-66
2023/09/24 11:28:02;;;;;;;2.88;0.93;;;;;;;23.54;45.92;101487.25;5014736;28;20503;-65
2023/09/24 11:30:47;;;;;;;2.88;1.02;;;;;;;23.54;44.86;101484.56;5033806;28;20112;-66
2023/09/24 11:33:23;;;;;;;2.03;1.00;;;;;;;23.52;44.86;101479.28;5026168;28;20049;-65